sensor_id;sensor_type;location;lat;lon;timestamp;P1;durP1;ratioP1;P2;durP2;ratioP2
10847;SDS011;5477;48.806;9.154;2023-04-06T00:02:09;5.60;;;3.80;;
10847;SDS011;5477;48.806;9.154;2023-04-06T00:04:37;5.13;;;3.93;;
10847;SDS011;5477;48.806;9.154;2023-04-06T00:07:06;5.97;;;4.50;;
10847;SDS011;5477;48.806;9.154;2023-04-06T00:09:34;5.03;;;4.23;;
10847;SDS011;5477;48.806;9.154;2023-04-06T00:12:03;4.80;;;4.00;;
10847;SDS011;5477;48.806;9.154;2023-04-06T00:14:31;5.90;;;4.27;;
10847;SDS011;5477;48.806;9.154;2023-04-06T00:16:59;7.37;;;4.70;;
10847;SDS011;5477;48.806;9.154;2023-04-06T00:19:27;4.63;;;4.03;;
10847;SDS011;5477;48.806;9.154;2023-04-06T00:21:56;5.33;;;3.90;;
10847;SDS011;5477;48.806;9.154;2023-04-06T00:24:25;4.93;;;4.20;;
10847;SDS011;5477;48.806;9.154;2023-04-06T00:26:53;5.13;;;4.20;;
10847;SDS011;5477;48.806;9.154;2023-04-06T00:29:21;5.97;;;4.20;;
10847;SDS011;5477;48.806;9.154;2023-04-06T00:31:49;5.43;;;4.47;;
10847;SDS011;5477;48.806;9.154;2023-04-06T00:34:17;5.57;;;4.53;;
10847;SDS011;5477;48.806;9.154;2023-04-06T00:36:45;6.23;;;3.97;;
10847;SDS011;5477;48.806;9.154;2023-04-06T00:39:14;4.97;;;4.20;;
10847;SDS011;5477;48.806;9.154;2023-04-06T00:41:46;6.17;;;4.23;;
10847;SDS011;5477;48.806;9.154;2023-04-06T00:44:18;5.43;;;4.47;;
10847;SDS011;5477;48.806;9.154;2023-04-06T00:46:46;6.93;;;4.30;;
10847;SDS011;5477;48.806;9.154;2023-04-06T00:49:16;4.67;;;3.83;;
10847;SDS011;5477;48.806;9.154;2023-04-06T00:51:44;4.30;;;3.90;;
10847;SDS011;5477;48.806;9.154;2023-04-06T00:54:14;6.10;;;4.27;;
10847;SDS011;5477;48.806;9.154;2023-04-06T00:56:43;5.00;;;4.33;;
10847;SDS011;5477;48.806;9.154;2023-04-06T00:59:12;6.23;;;4.50;;
10847;SDS011;5477;48.806;9.154;2023-04-06T01:01:41;5.17;;;4.23;;
10847;SDS011;5477;48.806;9.154;2023-04-06T01:04:24;5.97;;;4.07;;
10847;SDS011;5477;48.806;9.154;2023-04-06T01:06:54;8.63;;;4.53;;
10847;SDS011;5477;48.806;9.154;2023-04-06T01:09:28;5.00;;;4.00;;
10847;SDS011;5477;48.806;9.154;2023-04-06T01:12:01;4.87;;;4.10;;
10847;SDS011;5477;48.806;9.154;2023-04-06T01:14:32;6.20;;;4.07;;
10847;SDS011;5477;48.806;9.154;2023-04-06T01:17:00;6.13;;;4.23;;
10847;SDS011;5477;48.806;9.154;2023-04-06T01:19:31;8.17;;;4.63;;
10847;SDS011;5477;48.806;9.154;2023-04-06T01:22:00;4.67;;;4.20;;
10847;SDS011;5477;48.806;9.154;2023-04-06T01:24:32;4.80;;;4.00;;
10847;SDS011;5477;48.806;9.154;2023-04-06T01:27:23;4.63;;;4.07;;
10847;SDS011;5477;48.806;9.154;2023-04-06T01:30:11;4.67;;;3.70;;
10847;SDS011;5477;48.806;9.154;2023-04-06T01:32:45;5.30;;;3.90;;
10847;SDS011;5477;48.806;9.154;2023-04-06T01:35:17;5.97;;;4.20;;
10847;SDS011;5477;48.806;9.154;2023-04-06T01:37:56;6.27;;;4.30;;
10847;SDS011;5477;48.806;9.154;2023-04-06T01:40:30;4.83;;;4.03;;
10847;SDS011;5477;48.806;9.154;2023-04-06T01:42:59;7.83;;;4.63;;
10847;SDS011;5477;48.806;9.154;2023-04-06T01:45:36;5.77;;;4.10;;
10847;SDS011;5477;48.806;9.154;2023-04-06T01:48:14;4.97;;;4.20;;
10847;SDS011;5477;48.806;9.154;2023-04-06T01:50:42;7.73;;;4.17;;
10847;SDS011;5477;48.806;9.154;2023-04-06T01:53:15;7.37;;;4.17;;
10847;SDS011;5477;48.806;9.154;2023-04-06T01:55:45;6.70;;;4.40;;
10847;SDS011;5477;48.806;9.154;2023-04-06T01:58:36;7.00;;;4.30;;
10847;SDS011;5477;48.806;9.154;2023-04-06T02:01:05;5.77;;;4.27;;
10847;SDS011;5477;48.806;9.154;2023-04-06T02:03:48;6.23;;;4.57;;
10847;SDS011;5477;48.806;9.154;2023-04-06T02:06:17;5.73;;;4.07;;
10847;SDS011;5477;48.806;9.154;2023-04-06T02:08:45;4.63;;;4.00;;
10847;SDS011;5477;48.806;9.154;2023-04-06T02:11:15;4.60;;;4.10;;
10847;SDS011;5477;48.806;9.154;2023-04-06T02:13:47;5.07;;;4.10;;
10847;SDS011;5477;48.806;9.154;2023-04-06T02:16:16;5.20;;;3.93;;
10847;SDS011;5477;48.806;9.154;2023-04-06T02:18:45;5.50;;;4.40;;
10847;SDS011;5477;48.806;9.154;2023-04-06T02:21:13;5.20;;;4.57;;
10847;SDS011;5477;48.806;9.154;2023-04-06T02:23:46;9.43;;;4.90;;
10847;SDS011;5477;48.806;9.154;2023-04-06T02:26:18;5.97;;;4.23;;
10847;SDS011;5477;48.806;9.154;2023-04-06T02:28:46;6.20;;;4.17;;
10847;SDS011;5477;48.806;9.154;2023-04-06T02:31:15;5.93;;;4.20;;
10847;SDS011;5477;48.806;9.154;2023-04-06T02:33:44;5.30;;;4.20;;
10847;SDS011;5477;48.806;9.154;2023-04-06T02:36:13;4.90;;;4.40;;
10847;SDS011;5477;48.806;9.154;2023-04-06T02:38:42;6.33;;;4.57;;
10847;SDS011;5477;48.806;9.154;2023-04-06T02:41:10;6.10;;;4.57;;
10847;SDS011;5477;48.806;9.154;2023-04-06T02:43:40;7.03;;;4.57;;
10847;SDS011;5477;48.806;9.154;2023-04-06T02:46:23;5.70;;;4.33;;
10847;SDS011;5477;48.806;9.154;2023-04-06T02:48:51;6.87;;;3.77;;
10847;SDS011;5477;48.806;9.154;2023-04-06T02:51:20;6.80;;;4.63;;
10847;SDS011;5477;48.806;9.154;2023-04-06T02:53:53;6.33;;;4.73;;
10847;SDS011;5477;48.806;9.154;2023-04-06T02:56:22;6.33;;;4.60;;
10847;SDS011;5477;48.806;9.154;2023-04-06T02:58:52;6.13;;;4.30;;
10847;SDS011;5477;48.806;9.154;2023-04-06T03:01:24;6.20;;;4.77;;
10847;SDS011;5477;48.806;9.154;2023-04-06T03:03:57;7.03;;;4.87;;
10847;SDS011;5477;48.806;9.154;2023-04-06T03:06:27;8.33;;;4.77;;
10847;SDS011;5477;48.806;9.154;2023-04-06T03:09:03;6.20;;;5.00;;
10847;SDS011;5477;48.806;9.154;2023-04-06T03:11:32;6.63;;;4.97;;
10847;SDS011;5477;48.806;9.154;2023-04-06T03:14:02;6.67;;;5.00;;
10847;SDS011;5477;48.806;9.154;2023-04-06T03:16:30;6.03;;;4.60;;
10847;SDS011;5477;48.806;9.154;2023-04-06T03:19:00;7.27;;;5.37;;
10847;SDS011;5477;48.806;9.154;2023-04-06T03:21:32;7.60;;;5.27;;
10847;SDS011;5477;48.806;9.154;2023-04-06T03:24:02;5.87;;;5.10;;
10847;SDS011;5477;48.806;9.154;2023-04-06T03:26:31;6.77;;;5.30;;
10847;SDS011;5477;48.806;9.154;2023-04-06T03:29:05;8.23;;;4.60;;
10847;SDS011;5477;48.806;9.154;2023-04-06T03:31:34;6.77;;;4.77;;
10847;SDS011;5477;48.806;9.154;2023-04-06T03:34:06;7.70;;;4.90;;
10847;SDS011;5477;48.806;9.154;2023-04-06T03:36:35;6.43;;;4.83;;
10847;SDS011;5477;48.806;9.154;2023-04-06T03:39:03;8.07;;;4.83;;
10847;SDS011;5477;48.806;9.154;2023-04-06T03:41:36;6.83;;;4.80;;
10847;SDS011;5477;48.806;9.154;2023-04-06T03:44:27;9.27;;;5.90;;
10847;SDS011;5477;48.806;9.154;2023-04-06T03:46:58;7.80;;;5.00;;
10847;SDS011;5477;48.806;9.154;2023-04-06T03:49:27;6.70;;;5.50;;
10847;SDS011;5477;48.806;9.154;2023-04-06T03:51:56;11.53;;;6.20;;
10847;SDS011;5477;48.806;9.154;2023-04-06T03:54:24;6.63;;;5.57;;
10847;SDS011;5477;48.806;9.154;2023-04-06T03:56:52;8.30;;;5.40;;
10847;SDS011;5477;48.806;9.154;2023-04-06T03:59:21;6.77;;;5.47;;
10847;SDS011;5477;48.806;9.154;2023-04-06T04:01:53;10.37;;;6.83;;
10847;SDS011;5477;48.806;9.154;2023-04-06T04:04:22;11.40;;;6.07;;
10847;SDS011;5477;48.806;9.154;2023-04-06T04:06:50;9.13;;;5.67;;
10847;SDS011;5477;48.806;9.154;2023-04-06T04:09:18;8.40;;;5.83;;
10847;SDS011;5477;48.806;9.154;2023-04-06T04:11:46;10.97;;;5.77;;
10847;SDS011;5477;48.806;9.154;2023-04-06T04:14:15;6.27;;;5.30;;
10847;SDS011;5477;48.806;9.154;2023-04-06T04:16:44;6.83;;;5.47;;
10847;SDS011;5477;48.806;9.154;2023-04-06T04:19:13;8.13;;;5.20;;
10847;SDS011;5477;48.806;9.154;2023-04-06T04:21:42;7.27;;;5.53;;
10847;SDS011;5477;48.806;9.154;2023-04-06T04:24:15;7.30;;;5.70;;
10847;SDS011;5477;48.806;9.154;2023-04-06T04:26:43;8.83;;;5.83;;
10847;SDS011;5477;48.806;9.154;2023-04-06T04:29:11;7.17;;;5.37;;
10847;SDS011;5477;48.806;9.154;2023-04-06T04:31:39;10.07;;;6.60;;
10847;SDS011;5477;48.806;9.154;2023-04-06T04:34:17;7.97;;;6.80;;
10847;SDS011;5477;48.806;9.154;2023-04-06T04:36:49;8.73;;;6.07;;
10847;SDS011;5477;48.806;9.154;2023-04-06T04:39:24;7.60;;;5.97;;
10847;SDS011;5477;48.806;9.154;2023-04-06T04:42:00;6.93;;;5.37;;
10847;SDS011;5477;48.806;9.154;2023-04-06T04:44:31;6.97;;;5.63;;
10847;SDS011;5477;48.806;9.154;2023-04-06T04:47:00;8.07;;;6.23;;
10847;SDS011;5477;48.806;9.154;2023-04-06T04:49:40;8.07;;;5.87;;
10847;SDS011;5477;48.806;9.154;2023-04-06T04:52:10;7.17;;;5.77;;
10847;SDS011;5477;48.806;9.154;2023-04-06T04:54:50;8.23;;;6.10;;
10847;SDS011;5477;48.806;9.154;2023-04-06T04:57:23;8.57;;;6.30;;
10847;SDS011;5477;48.806;9.154;2023-04-06T04:59:51;7.97;;;5.87;;
10847;SDS011;5477;48.806;9.154;2023-04-06T05:02:23;9.70;;;6.20;;
10847;SDS011;5477;48.806;9.154;2023-04-06T05:05:11;9.13;;;5.53;;
10847;SDS011;5477;48.806;9.154;2023-04-06T05:07:40;15.43;;;8.07;;
10847;SDS011;5477;48.806;9.154;2023-04-06T05:10:16;8.10;;;5.90;;
10847;SDS011;5477;48.806;9.154;2023-04-06T05:12:51;9.83;;;5.77;;
10847;SDS011;5477;48.806;9.154;2023-04-06T05:15:20;10.10;;;5.90;;
10847;SDS011;5477;48.806;9.154;2023-04-06T05:17:52;10.20;;;6.17;;
10847;SDS011;5477;48.806;9.154;2023-04-06T05:20:29;8.90;;;6.20;;
10847;SDS011;5477;48.806;9.154;2023-04-06T05:22:58;7.47;;;6.03;;
10847;SDS011;5477;48.806;9.154;2023-04-06T05:25:27;8.17;;;6.20;;
10847;SDS011;5477;48.806;9.154;2023-04-06T05:28:01;7.07;;;6.07;;
10847;SDS011;5477;48.806;9.154;2023-04-06T05:30:33;8.93;;;6.33;;
10847;SDS011;5477;48.806;9.154;2023-04-06T05:33:02;7.47;;;6.13;;
10847;SDS011;5477;48.806;9.154;2023-04-06T05:35:44;8.30;;;6.07;;
10847;SDS011;5477;48.806;9.154;2023-04-06T05:38:13;7.93;;;6.00;;
10847;SDS011;5477;48.806;9.154;2023-04-06T05:40:41;7.53;;;5.97;;
10847;SDS011;5477;48.806;9.154;2023-04-06T05:43:13;7.33;;;5.40;;
10847;SDS011;5477;48.806;9.154;2023-04-06T05:45:45;7.90;;;6.23;;
10847;SDS011;5477;48.806;9.154;2023-04-06T05:48:13;7.93;;;6.03;;
10847;SDS011;5477;48.806;9.154;2023-04-06T05:50:42;7.30;;;5.90;;
10847;SDS011;5477;48.806;9.154;2023-04-06T05:53:14;10.53;;;6.40;;
10847;SDS011;5477;48.806;9.154;2023-04-06T05:55:50;13.07;;;6.50;;
10847;SDS011;5477;48.806;9.154;2023-04-06T05:58:20;9.57;;;5.93;;
10847;SDS011;5477;48.806;9.154;2023-04-06T06:00:55;9.40;;;6.50;;
10847;SDS011;5477;48.806;9.154;2023-04-06T06:03:27;8.43;;;5.77;;
10847;SDS011;5477;48.806;9.154;2023-04-06T06:06:00;7.90;;;6.57;;
10847;SDS011;5477;48.806;9.154;2023-04-06T06:08:45;9.40;;;6.37;;
10847;SDS011;5477;48.806;9.154;2023-04-06T06:11:16;10.60;;;6.40;;
10847;SDS011;5477;48.806;9.154;2023-04-06T06:13:44;12.00;;;6.50;;
10847;SDS011;5477;48.806;9.154;2023-04-06T06:16:13;9.77;;;6.53;;
10847;SDS011;5477;48.806;9.154;2023-04-06T06:18:45;8.90;;;5.97;;
10847;SDS011;5477;48.806;9.154;2023-04-06T06:21:14;10.57;;;7.03;;
10847;SDS011;5477;48.806;9.154;2023-04-06T06:23:45;11.90;;;6.90;;
10847;SDS011;5477;48.806;9.154;2023-04-06T06:26:18;10.90;;;6.80;;
10847;SDS011;5477;48.806;9.154;2023-04-06T06:28:48;11.20;;;7.30;;
10847;SDS011;5477;48.806;9.154;2023-04-06T06:31:16;11.40;;;7.70;;
10847;SDS011;5477;48.806;9.154;2023-04-06T06:33:46;13.23;;;7.10;;
10847;SDS011;5477;48.806;9.154;2023-04-06T06:36:18;12.77;;;8.20;;
10847;SDS011;5477;48.806;9.154;2023-04-06T06:38:48;10.40;;;8.07;;
10847;SDS011;5477;48.806;9.154;2023-04-06T06:41:18;11.23;;;8.10;;
10847;SDS011;5477;48.806;9.154;2023-04-06T06:43:47;14.40;;;8.27;;
10847;SDS011;5477;48.806;9.154;2023-04-06T06:46:16;11.77;;;8.27;;
10847;SDS011;5477;48.806;9.154;2023-04-06T06:48:45;13.23;;;8.30;;
10847;SDS011;5477;48.806;9.154;2023-04-06T06:51:13;14.43;;;8.93;;
10847;SDS011;5477;48.806;9.154;2023-04-06T06:53:41;17.30;;;9.47;;
10847;SDS011;5477;48.806;9.154;2023-04-06T06:56:11;14.33;;;8.93;;
10847;SDS011;5477;48.806;9.154;2023-04-06T06:58:40;14.73;;;9.30;;
10847;SDS011;5477;48.806;9.154;2023-04-06T07:01:09;11.80;;;8.87;;
10847;SDS011;5477;48.806;9.154;2023-04-06T07:03:37;17.37;;;9.17;;
10847;SDS011;5477;48.806;9.154;2023-04-06T07:06:05;15.27;;;8.73;;
10847;SDS011;5477;48.806;9.154;2023-04-06T07:08:33;13.17;;;8.60;;
10847;SDS011;5477;48.806;9.154;2023-04-06T07:11:02;13.77;;;9.60;;
10847;SDS011;5477;48.806;9.154;2023-04-06T07:13:31;15.03;;;9.20;;
10847;SDS011;5477;48.806;9.154;2023-04-06T07:16:00;12.93;;;9.77;;
10847;SDS011;5477;48.806;9.154;2023-04-06T07:18:29;13.83;;;9.50;;
10847;SDS011;5477;48.806;9.154;2023-04-06T07:21:00;11.60;;;9.33;;
10847;SDS011;5477;48.806;9.154;2023-04-06T07:23:29;13.13;;;8.50;;
10847;SDS011;5477;48.806;9.154;2023-04-06T07:25:57;15.87;;;9.53;;
10847;SDS011;5477;48.806;9.154;2023-04-06T07:28:25;12.43;;;9.03;;
10847;SDS011;5477;48.806;9.154;2023-04-06T07:30:55;11.60;;;9.07;;
10847;SDS011;5477;48.806;9.154;2023-04-06T07:33:24;13.67;;;9.33;;
10847;SDS011;5477;48.806;9.154;2023-04-06T07:35:56;12.77;;;8.90;;
10847;SDS011;5477;48.806;9.154;2023-04-06T07:38:25;14.70;;;9.30;;
10847;SDS011;5477;48.806;9.154;2023-04-06T07:40:55;15.83;;;9.10;;
10847;SDS011;5477;48.806;9.154;2023-04-06T07:43:23;14.43;;;9.63;;
10847;SDS011;5477;48.806;9.154;2023-04-06T07:45:52;21.33;;;9.80;;
10847;SDS011;5477;48.806;9.154;2023-04-06T07:48:22;12.40;;;9.60;;
10847;SDS011;5477;48.806;9.154;2023-04-06T07:50:51;14.23;;;9.27;;
10847;SDS011;5477;48.806;9.154;2023-04-06T07:53:19;12.93;;;9.13;;
10847;SDS011;5477;48.806;9.154;2023-04-06T07:55:47;27.80;;;9.70;;
10847;SDS011;5477;48.806;9.154;2023-04-06T07:58:16;13.10;;;9.67;;
10847;SDS011;5477;48.806;9.154;2023-04-06T08:00:44;12.43;;;9.37;;
10847;SDS011;5477;48.806;9.154;2023-04-06T08:03:12;11.27;;;9.17;;
10847;SDS011;5477;48.806;9.154;2023-04-06T08:05:41;14.03;;;9.50;;
10847;SDS011;5477;48.806;9.154;2023-04-06T08:08:10;15.97;;;9.10;;
10847;SDS011;5477;48.806;9.154;2023-04-06T08:10:38;16.07;;;9.70;;
10847;SDS011;5477;48.806;9.154;2023-04-06T08:13:06;12.40;;;9.60;;
10847;SDS011;5477;48.806;9.154;2023-04-06T08:15:35;13.10;;;9.00;;
10847;SDS011;5477;48.806;9.154;2023-04-06T08:18:03;15.53;;;9.30;;
10847;SDS011;5477;48.806;9.154;2023-04-06T08:20:32;17.23;;;9.47;;
10847;SDS011;5477;48.806;9.154;2023-04-06T08:23:01;14.33;;;9.23;;
10847;SDS011;5477;48.806;9.154;2023-04-06T08:25:29;12.97;;;9.33;;
10847;SDS011;5477;48.806;9.154;2023-04-06T08:27:58;14.87;;;9.10;;
10847;SDS011;5477;48.806;9.154;2023-04-06T08:30:26;19.30;;;9.33;;
10847;SDS011;5477;48.806;9.154;2023-04-06T08:32:54;13.87;;;9.77;;
10847;SDS011;5477;48.806;9.154;2023-04-06T08:35:22;13.73;;;9.97;;
10847;SDS011;5477;48.806;9.154;2023-04-06T08:37:51;12.70;;;9.17;;
10847;SDS011;5477;48.806;9.154;2023-04-06T08:40:20;13.87;;;9.57;;
10847;SDS011;5477;48.806;9.154;2023-04-06T08:42:49;13.60;;;9.17;;
10847;SDS011;5477;48.806;9.154;2023-04-06T08:45:21;13.37;;;9.53;;
10847;SDS011;5477;48.806;9.154;2023-04-06T08:47:50;13.57;;;9.00;;
10847;SDS011;5477;48.806;9.154;2023-04-06T08:50:19;11.67;;;9.50;;
10847;SDS011;5477;48.806;9.154;2023-04-06T08:52:48;13.83;;;8.93;;
10847;SDS011;5477;48.806;9.154;2023-04-06T08:55:16;10.47;;;8.70;;
10847;SDS011;5477;48.806;9.154;2023-04-06T08:57:46;13.87;;;9.60;;
10847;SDS011;5477;48.806;9.154;2023-04-06T09:00:15;16.57;;;8.80;;
10847;SDS011;5477;48.806;9.154;2023-04-06T09:02:45;12.97;;;9.20;;
10847;SDS011;5477;48.806;9.154;2023-04-06T09:05:13;12.20;;;9.30;;
10847;SDS011;5477;48.806;9.154;2023-04-06T09:07:42;11.20;;;8.47;;
10847;SDS011;5477;48.806;9.154;2023-04-06T09:10:11;8.57;;;7.07;;
10847;SDS011;5477;48.806;9.154;2023-04-06T09:12:41;9.97;;;7.63;;
10847;SDS011;5477;48.806;9.154;2023-04-06T09:15:18;12.70;;;8.30;;
10847;SDS011;5477;48.806;9.154;2023-04-06T09:17:50;11.23;;;8.27;;
10847;SDS011;5477;48.806;9.154;2023-04-06T09:20:22;12.80;;;8.43;;
10847;SDS011;5477;48.806;9.154;2023-04-06T09:22:52;9.23;;;8.07;;
10847;SDS011;5477;48.806;9.154;2023-04-06T09:25:21;14.37;;;8.80;;
10847;SDS011;5477;48.806;9.154;2023-04-06T09:27:57;12.63;;;9.27;;
10847;SDS011;5477;48.806;9.154;2023-04-06T09:30:28;13.13;;;8.20;;
10847;SDS011;5477;48.806;9.154;2023-04-06T09:32:57;16.57;;;8.10;;
10847;SDS011;5477;48.806;9.154;2023-04-06T09:35:26;12.53;;;8.20;;
10847;SDS011;5477;48.806;9.154;2023-04-06T09:37:56;11.83;;;8.20;;
10847;SDS011;5477;48.806;9.154;2023-04-06T09:40:24;14.37;;;8.47;;
10847;SDS011;5477;48.806;9.154;2023-04-06T09:42:52;11.03;;;8.40;;
10847;SDS011;5477;48.806;9.154;2023-04-06T09:45:23;11.87;;;8.53;;
10847;SDS011;5477;48.806;9.154;2023-04-06T09:47:54;14.60;;;8.50;;
10847;SDS011;5477;48.806;9.154;2023-04-06T09:50:23;10.33;;;8.03;;
10847;SDS011;5477;48.806;9.154;2023-04-06T09:52:54;10.40;;;8.33;;
10847;SDS011;5477;48.806;9.154;2023-04-06T09:55:26;10.17;;;8.17;;
10847;SDS011;5477;48.806;9.154;2023-04-06T09:57:59;9.63;;;8.03;;
10847;SDS011;5477;48.806;9.154;2023-04-06T10:00:32;10.87;;;8.70;;
10847;SDS011;5477;48.806;9.154;2023-04-06T10:03:11;11.13;;;8.27;;
10847;SDS011;5477;48.806;9.154;2023-04-06T10:05:50;10.67;;;7.67;;
10847;SDS011;5477;48.806;9.154;2023-04-06T10:08:24;11.80;;;8.37;;
10847;SDS011;5477;48.806;9.154;2023-04-06T10:10:58;11.87;;;8.23;;
10847;SDS011;5477;48.806;9.154;2023-04-06T10:13:27;13.37;;;8.23;;
10847;SDS011;5477;48.806;9.154;2023-04-06T10:15:55;8.90;;;7.90;;
10847;SDS011;5477;48.806;9.154;2023-04-06T10:18:27;11.03;;;7.93;;
10847;SDS011;5477;48.806;9.154;2023-04-06T10:20:57;10.93;;;8.40;;
10847;SDS011;5477;48.806;9.154;2023-04-06T10:23:31;10.43;;;7.83;;
10847;SDS011;5477;48.806;9.154;2023-04-06T10:26:02;13.33;;;8.17;;
10847;SDS011;5477;48.806;9.154;2023-04-06T10:28:31;10.90;;;7.40;;
10847;SDS011;5477;48.806;9.154;2023-04-06T10:31:02;9.30;;;7.87;;
10847;SDS011;5477;48.806;9.154;2023-04-06T10:33:34;10.70;;;7.60;;
10847;SDS011;5477;48.806;9.154;2023-04-06T10:36:09;10.60;;;7.57;;
10847;SDS011;5477;48.806;9.154;2023-04-06T10:38:38;9.57;;;7.20;;
10847;SDS011;5477;48.806;9.154;2023-04-06T10:41:08;9.57;;;7.73;;
10847;SDS011;5477;48.806;9.154;2023-04-06T10:43:37;10.90;;;7.03;;
10847;SDS011;5477;48.806;9.154;2023-04-06T10:46:09;8.50;;;7.60;;
10847;SDS011;5477;48.806;9.154;2023-04-06T10:48:40;11.23;;;7.37;;
10847;SDS011;5477;48.806;9.154;2023-04-06T10:51:10;9.60;;;7.27;;
10847;SDS011;5477;48.806;9.154;2023-04-06T10:53:39;10.50;;;7.80;;
10847;SDS011;5477;48.806;9.154;2023-04-06T10:56:10;8.63;;;7.03;;
10847;SDS011;5477;48.806;9.154;2023-04-06T10:58:43;10.37;;;7.33;;
10847;SDS011;5477;48.806;9.154;2023-04-06T11:01:13;8.07;;;7.27;;
10847;SDS011;5477;48.806;9.154;2023-04-06T11:03:44;7.87;;;7.13;;
10847;SDS011;5477;48.806;9.154;2023-04-06T11:06:22;11.27;;;7.10;;
10847;SDS011;5477;48.806;9.154;2023-04-06T11:08:51;11.43;;;7.30;;
10847;SDS011;5477;48.806;9.154;2023-04-06T11:11:21;9.10;;;7.50;;
10847;SDS011;5477;48.806;9.154;2023-04-06T11:13:52;10.07;;;6.57;;
10847;SDS011;5477;48.806;9.154;2023-04-06T11:16:22;10.57;;;6.80;;
10847;SDS011;5477;48.806;9.154;2023-04-06T11:18:53;10.23;;;7.17;;
10847;SDS011;5477;48.806;9.154;2023-04-06T11:21:33;9.43;;;6.70;;
10847;SDS011;5477;48.806;9.154;2023-04-06T11:24:06;8.43;;;6.90;;
10847;SDS011;5477;48.806;9.154;2023-04-06T11:26:36;8.93;;;7.00;;
10847;SDS011;5477;48.806;9.154;2023-04-06T11:29:06;8.80;;;7.07;;
10847;SDS011;5477;48.806;9.154;2023-04-06T11:31:39;8.47;;;7.20;;
10847;SDS011;5477;48.806;9.154;2023-04-06T11:34:13;8.70;;;7.07;;
10847;SDS011;5477;48.806;9.154;2023-04-06T11:36:43;10.20;;;6.90;;
10847;SDS011;5477;48.806;9.154;2023-04-06T11:39:13;9.00;;;6.63;;
10847;SDS011;5477;48.806;9.154;2023-04-06T11:41:47;9.33;;;6.40;;
10847;SDS011;5477;48.806;9.154;2023-04-06T11:44:26;8.23;;;6.80;;
10847;SDS011;5477;48.806;9.154;2023-04-06T11:46:56;8.37;;;6.70;;
10847;SDS011;5477;48.806;9.154;2023-04-06T11:49:27;7.30;;;6.30;;
10847;SDS011;5477;48.806;9.154;2023-04-06T11:51:56;7.80;;;6.67;;
10847;SDS011;5477;48.806;9.154;2023-04-06T11:54:32;7.70;;;6.10;;
10847;SDS011;5477;48.806;9.154;2023-04-06T11:57:01;7.63;;;6.07;;
10847;SDS011;5477;48.806;9.154;2023-04-06T11:59:30;8.13;;;6.30;;
10847;SDS011;5477;48.806;9.154;2023-04-06T12:01:58;7.97;;;6.67;;
10847;SDS011;5477;48.806;9.154;2023-04-06T12:04:28;10.07;;;6.80;;
10847;SDS011;5477;48.806;9.154;2023-04-06T12:06:56;9.33;;;6.63;;
10847;SDS011;5477;48.806;9.154;2023-04-06T12:09:25;9.37;;;7.33;;
10847;SDS011;5477;48.806;9.154;2023-04-06T12:11:53;11.03;;;6.97;;
10847;SDS011;5477;48.806;9.154;2023-04-06T12:14:22;9.70;;;7.57;;
10847;SDS011;5477;48.806;9.154;2023-04-06T12:16:50;7.77;;;6.67;;
10847;SDS011;5477;48.806;9.154;2023-04-06T12:19:18;9.67;;;6.97;;
10847;SDS011;5477;48.806;9.154;2023-04-06T12:21:48;6.40;;;5.67;;
10847;SDS011;5477;48.806;9.154;2023-04-06T12:24:17;6.93;;;6.23;;
10847;SDS011;5477;48.806;9.154;2023-04-06T12:26:45;8.37;;;6.40;;
10847;SDS011;5477;48.806;9.154;2023-04-06T12:29:13;7.47;;;6.30;;
10847;SDS011;5477;48.806;9.154;2023-04-06T12:31:42;7.43;;;5.93;;
10847;SDS011;5477;48.806;9.154;2023-04-06T12:34:11;7.20;;;6.00;;
10847;SDS011;5477;48.806;9.154;2023-04-06T12:36:39;8.37;;;6.53;;
10847;SDS011;5477;48.806;9.154;2023-04-06T12:39:09;10.10;;;7.30;;
10847;SDS011;5477;48.806;9.154;2023-04-06T12:41:37;11.60;;;7.57;;
10847;SDS011;5477;48.806;9.154;2023-04-06T12:44:06;8.47;;;6.40;;
10847;SDS011;5477;48.806;9.154;2023-04-06T12:46:35;7.83;;;6.40;;
10847;SDS011;5477;48.806;9.154;2023-04-06T12:49:03;12.30;;;6.87;;
10847;SDS011;5477;48.806;9.154;2023-04-06T12:51:31;9.60;;;6.53;;
10847;SDS011;5477;48.806;9.154;2023-04-06T12:53:59;9.63;;;6.33;;
10847;SDS011;5477;48.806;9.154;2023-04-06T12:56:28;9.47;;;7.40;;
10847;SDS011;5477;48.806;9.154;2023-04-06T12:58:57;10.00;;;7.20;;
10847;SDS011;5477;48.806;9.154;2023-04-06T13:01:25;8.70;;;6.57;;
10847;SDS011;5477;48.806;9.154;2023-04-06T13:03:55;9.70;;;8.10;;
10847;SDS011;5477;48.806;9.154;2023-04-06T13:06:23;7.10;;;6.40;;
10847;SDS011;5477;48.806;9.154;2023-04-06T13:08:54;10.80;;;7.60;;
10847;SDS011;5477;48.806;9.154;2023-04-06T13:11:22;11.50;;;6.97;;
10847;SDS011;5477;48.806;9.154;2023-04-06T13:13:55;9.73;;;6.10;;
10847;SDS011;5477;48.806;9.154;2023-04-06T13:16:23;7.67;;;6.43;;
10847;SDS011;5477;48.806;9.154;2023-04-06T13:18:51;6.50;;;5.80;;
10847;SDS011;5477;48.806;9.154;2023-04-06T13:21:19;8.90;;;6.30;;
10847;SDS011;5477;48.806;9.154;2023-04-06T13:23:48;8.13;;;6.70;;
10847;SDS011;5477;48.806;9.154;2023-04-06T13:26:16;7.23;;;6.23;;
10847;SDS011;5477;48.806;9.154;2023-04-06T13:28:44;8.27;;;6.23;;
10847;SDS011;5477;48.806;9.154;2023-04-06T13:31:13;7.87;;;6.27;;
10847;SDS011;5477;48.806;9.154;2023-04-06T13:33:42;8.07;;;6.40;;
10847;SDS011;5477;48.806;9.154;2023-04-06T13:36:10;8.97;;;6.10;;
10847;SDS011;5477;48.806;9.154;2023-04-06T13:38:41;8.77;;;6.30;;
10847;SDS011;5477;48.806;9.154;2023-04-06T13:41:09;10.97;;;6.80;;
10847;SDS011;5477;48.806;9.154;2023-04-06T13:43:37;7.70;;;6.53;;
10847;SDS011;5477;48.806;9.154;2023-04-06T13:46:05;9.23;;;6.00;;
10847;SDS011;5477;48.806;9.154;2023-04-06T13:48:35;7.90;;;6.50;;
10847;SDS011;5477;48.806;9.154;2023-04-06T13:51:09;7.30;;;6.00;;
10847;SDS011;5477;48.806;9.154;2023-04-06T13:53:38;7.33;;;6.40;;
10847;SDS011;5477;48.806;9.154;2023-04-06T13:56:07;13.63;;;6.80;;
10847;SDS011;5477;48.806;9.154;2023-04-06T13:58:35;6.60;;;5.97;;
10847;SDS011;5477;48.806;9.154;2023-04-06T14:01:04;8.37;;;6.63;;
10847;SDS011;5477;48.806;9.154;2023-04-06T14:03:35;6.53;;;5.90;;
10847;SDS011;5477;48.806;9.154;2023-04-06T14:06:09;8.80;;;6.30;;
10847;SDS011;5477;48.806;9.154;2023-04-06T14:08:55;6.63;;;5.90;;
10847;SDS011;5477;48.806;9.154;2023-04-06T14:11:23;7.20;;;5.90;;
10847;SDS011;5477;48.806;9.154;2023-04-06T14:13:52;7.47;;;6.03;;
10847;SDS011;5477;48.806;9.154;2023-04-06T14:16:23;8.48;;;5.90;;
10847;SDS011;5477;48.806;9.154;2023-04-06T14:18:53;6.67;;;5.77;;
10847;SDS011;5477;48.806;9.154;2023-04-06T14:21:24;7.10;;;5.73;;
10847;SDS011;5477;48.806;9.154;2023-04-06T14:23:52;8.87;;;5.77;;
10847;SDS011;5477;48.806;9.154;2023-04-06T14:26:24;7.20;;;6.03;;
10847;SDS011;5477;48.806;9.154;2023-04-06T14:28:53;8.63;;;6.13;;
10847;SDS011;5477;48.806;9.154;2023-04-06T14:31:22;8.23;;;6.30;;
10847;SDS011;5477;48.806;9.154;2023-04-06T14:33:50;7.13;;;5.93;;
10847;SDS011;5477;48.806;9.154;2023-04-06T14:36:19;8.73;;;5.93;;
10847;SDS011;5477;48.806;9.154;2023-04-06T14:38:47;6.60;;;5.37;;
10847;SDS011;5477;48.806;9.154;2023-04-06T14:41:15;7.07;;;5.57;;
10847;SDS011;5477;48.806;9.154;2023-04-06T14:43:44;6.07;;;5.20;;
10847;SDS011;5477;48.806;9.154;2023-04-06T14:46:13;8.40;;;6.23;;
10847;SDS011;5477;48.806;9.154;2023-04-06T14:48:42;9.70;;;5.50;;
10847;SDS011;5477;48.806;9.154;2023-04-06T14:51:10;8.90;;;6.00;;
10847;SDS011;5477;48.806;9.154;2023-04-06T14:53:39;9.07;;;6.03;;
10847;SDS011;5477;48.806;9.154;2023-04-06T14:56:07;7.13;;;5.53;;
10847;SDS011;5477;48.806;9.154;2023-04-06T14:58:35;7.77;;;5.73;;
10847;SDS011;5477;48.806;9.154;2023-04-06T15:01:03;7.67;;;5.63;;
10847;SDS011;5477;48.806;9.154;2023-04-06T15:03:32;7.97;;;5.73;;
10847;SDS011;5477;48.806;9.154;2023-04-06T15:06:01;7.47;;;5.87;;
10847;SDS011;5477;48.806;9.154;2023-04-06T15:08:29;6.67;;;5.57;;
10847;SDS011;5477;48.806;9.154;2023-04-06T15:10:59;7.80;;;6.27;;
10847;SDS011;5477;48.806;9.154;2023-04-06T15:13:28;9.40;;;6.17;;
10847;SDS011;5477;48.806;9.154;2023-04-06T15:15:56;7.90;;;5.60;;